createdAt,value
2023-04-25T04:44:53.255Z,6.30
2023-04-25T04:47:42.990Z,5.50
2023-04-25T04:50:36.740Z,5.80
2023-04-25T04:53:23.385Z,5.90
2023-04-25T04:56:24.411Z,6.70
2023-04-25T04:59:14.108Z,6.50
2023-04-25T05:02:13.480Z,6.40
2023-04-25T05:05:09.788Z,7.40
2023-04-25T05:07:50.832Z,7.20
2023-04-25T05:10:36.665Z,7.00
2023-04-25T05:13:11.231Z,6.90
2023-04-25T05:15:51.401Z,7.50
2023-04-25T05:18:49.615Z,7.50
2023-04-25T05:21:46.795Z,7.10
2023-04-25T05:24:45.157Z,5.90
2023-04-25T05:27:25.073Z,6.60
2023-04-25T05:30:15.647Z,7.70
2023-04-25T05:33:23.641Z,8.40
2023-04-25T05:36:46.203Z,7.10
2023-04-25T05:39:54.979Z,7.50
2023-04-25T05:45:54.796Z,6.60
2023-04-25T05:48:46.016Z,6.40
2023-04-25T05:51:32.854Z,8.50
2023-04-25T05:54:11.994Z,6.40
2023-04-25T05:56:42.293Z,5.80
2023-04-25T05:59:15.231Z,6.80
2023-04-25T06:01:43.044Z,7.50
2023-04-25T06:04:13.013Z,6.30
2023-04-25T06:06:42.360Z,5.90
2023-04-25T06:09:14.398Z,5.80
2023-04-25T06:11:43.053Z,5.10
2023-04-25T06:14:11.552Z,5.00
2023-04-25T06:16:42.099Z,5.60
2023-04-25T06:19:15.693Z,5.50
2023-04-25T06:21:44.576Z,5.60
2023-04-25T06:24:11.702Z,5.60
2023-04-25T06:26:41.186Z,4.40
2023-04-25T06:29:08.549Z,6.60
2023-04-25T06:31:35.762Z,4.60
2023-04-25T06:34:03.539Z,3.70
2023-04-25T06:36:31.468Z,4.60
2023-04-25T06:39:03.612Z,3.80
2023-04-25T06:41:31.817Z,4.20
2023-04-25T06:44:00.229Z,4.00
2023-04-25T06:46:33.684Z,4.30
2023-04-25T06:49:01.168Z,3.80
2023-04-25T06:51:30.888Z,4.50
2023-04-25T06:53:58.121Z,4.40
2023-04-25T06:56:31.996Z,3.80
2023-04-25T06:59:09.240Z,3.40
2023-04-25T07:01:38.914Z,3.40
2023-04-25T07:04:11.016Z,4.00
2023-04-25T07:06:50.962Z,3.40
2023-04-25T07:09:43.547Z,3.80
2023-04-25T07:12:16.568Z,3.30
2023-04-25T07:14:49.196Z,3.60
2023-04-25T07:17:21.427Z,4.20
2023-04-25T07:19:48.354Z,3.20
2023-04-25T07:22:17.279Z,3.00
2023-04-25T07:24:46.090Z,3.20
2023-04-25T07:27:13.699Z,3.10
2023-04-25T07:29:57.026Z,2.90
2023-04-25T07:32:24.347Z,3.60
2023-04-25T07:34:52.363Z,3.50
2023-04-25T07:37:21.595Z,3.10
2023-04-25T07:40:07.285Z,3.20
2023-04-25T07:42:34.431Z,2.60
2023-04-25T07:45:02.429Z,3.00
2023-04-25T07:47:30.350Z,3.20
2023-04-25T07:49:59.756Z,3.70
2023-04-25T07:52:26.864Z,3.80
2023-04-25T07:55:02.367Z,2.90
2023-04-25T07:58:00.567Z,3.20
2023-04-25T08:00:31.832Z,2.60
2023-04-25T08:03:37.245Z,2.60
2023-04-25T08:06:09.640Z,2.50
2023-04-25T08:08:53.332Z,2.70
2023-04-25T08:11:22.388Z,2.90
2023-04-25T08:13:51.136Z,3.00
2023-04-25T08:16:18.725Z,2.60
2023-04-25T08:18:47.811Z,2.90
2023-04-25T08:21:16.762Z,2.80
2023-04-25T08:23:45.424Z,3.00
2023-04-25T08:26:33.731Z,2.40
2023-04-25T08:29:01.876Z,2.40
2023-04-25T08:31:40.432Z,3.00
2023-04-25T08:34:13.510Z,3.10
2023-04-25T08:36:50.434Z,3.60
2023-04-25T08:39:24.063Z,3.60
2023-04-25T08:42:47.346Z,4.20
2023-04-25T08:45:19.520Z,4.20
2023-04-25T08:47:46.981Z,6.90
2023-04-25T08:50:14.810Z,4.70
2023-04-25T08:52:46.618Z,4.30
2023-04-25T08:55:15.344Z,4.20
2023-04-25T08:57:44.120Z,4.70
2023-04-25T09:00:29.042Z,5.00
2023-04-25T09:03:00.383Z,4.10
2023-04-25T09:05:31.331Z,4.90
2023-04-25T09:07:59.289Z,4.50
2023-04-25T09:10:26.947Z,4.40
2023-04-25T09:13:10.345Z,4.30
2023-04-25T09:15:59.069Z,4.60
2023-04-25T09:19:06.087Z,4.50
2023-04-25T09:21:33.363Z,4.70
2023-04-25T09:24:00.770Z,4.60
2023-04-25T09:26:27.906Z,4.80
2023-04-25T09:29:10.514Z,4.70
2023-04-25T09:31:58.665Z,3.70
2023-04-25T09:34:45.678Z,4.10
2023-04-25T09:37:30.635Z,4.60
2023-04-25T09:40:19.032Z,3.50
2023-04-25T09:42:52.910Z,4.10
2023-04-25T09:45:30.051Z,3.60
2023-04-25T09:47:59.243Z,4.10
2023-04-25T09:50:28.082Z,3.10
2023-04-25T09:53:33.557Z,3.40
2023-04-25T09:56:21.654Z,3.50
2023-04-25T09:58:51.061Z,3.20
2023-04-25T10:01:18.548Z,3.00
2023-04-25T10:04:25.778Z,2.70
2023-04-25T10:07:24.350Z,2.70
2023-04-25T10:10:07.204Z,2.10
2023-04-25T10:12:40.488Z,2.30
2023-04-25T10:15:16.139Z,2.10
2023-04-25T10:17:52.225Z,2.10
2023-04-25T10:20:19.519Z,3.00
2023-04-25T10:22:46.515Z,2.20
2023-04-25T10:25:13.527Z,2.20
2023-04-25T10:27:40.792Z,2.20
2023-04-25T10:30:13.672Z,2.50
2023-04-25T10:32:41.233Z,4.00
2023-04-25T10:35:16.533Z,3.00
2023-04-25T10:38:02.004Z,3.00
2023-04-25T10:40:29.167Z,3.40
2023-04-25T10:42:57.069Z,3.80
2023-04-25T10:45:31.679Z,3.20
2023-04-25T10:48:02.133Z,3.00
2023-04-25T10:50:38.674Z,4.00
2023-04-25T10:53:16.316Z,2.70
2023-04-25T10:55:55.142Z,2.80
2023-04-25T10:58:23.889Z,2.40
2023-04-25T11:03:22.824Z,2.60
2023-04-25T11:05:57.773Z,2.50
2023-04-25T11:08:35.667Z,2.30
2023-04-25T11:11:03.117Z,2.30
2023-04-25T11:13:33.096Z,2.40
2023-04-25T11:16:07.469Z,3.10
2023-04-25T11:18:42.998Z,2.50
2023-04-25T11:21:10.249Z,2.20
2023-04-25T11:23:38.107Z,2.90
2023-04-25T11:26:05.479Z,3.00
2023-04-25T11:28:32.534Z,2.60
2023-04-25T11:30:59.513Z,2.20
2023-04-25T11:33:26.982Z,2.60
2023-04-25T11:35:57.546Z,3.20
2023-04-25T11:38:27.177Z,2.30
2023-04-25T11:40:54.471Z,2.60
2023-04-25T11:43:22.335Z,2.00
2023-04-25T11:45:50.448Z,2.10
2023-04-25T11:48:18.496Z,1.90
2023-04-25T11:50:46.713Z,2.10
2023-04-25T11:53:14.071Z,1.90
2023-04-25T11:55:41.195Z,1.90
2023-04-25T11:58:09.695Z,1.70
2023-04-25T12:00:36.900Z,2.40
2023-04-25T12:03:04.484Z,2.30
2023-04-25T12:05:34.461Z,2.40
2023-04-25T12:08:14.615Z,2.10
2023-04-25T12:10:42.391Z,2.00
2023-04-25T12:13:26.056Z,1.80
2023-04-25T12:15:55.245Z,1.70
2023-04-25T12:18:23.976Z,1.70
2023-04-25T12:20:50.915Z,2.20
